BAW94DL EGLL-EDDM
Flight info
| Callsign | BAW94DL |
|---|---|
| Flight time | 1h 24m |
| Altitude | 37000 |
| Route | DET L6 DVR UL9 KONAN UL607 SPI DCT MOVUM T109 HAREM T104 ROKIL ROKIL1B |
| Aircraft | A319/M-SDE3FGHIRWY/LB1 |
Departure
| Time | 2026-05-05 13:36 |
|---|---|
| Airport | London Heathrow Airport (EGLL) |
Arrival
| Time | 2026-05-05 15:01 |
|---|---|
| Airport | Munich Airport (EDDM) |
| Time | Latitude | Longitude | Altitude | Speed | Heading |
|---|---|---|---|---|---|
| 2026-05-05 13:06 | 51.47087 | -0.48586 | 90 ft | 0 kts | 270° |
| 2026-05-05 13:23 | 51.47087 | -0.48566 | 88 ft | 4 kts | 270° |
| 2026-05-05 13:23 | 51.47087 | -0.48527 | 86 ft | 1 kts | 270° |
| 2026-05-05 13:23 | 51.47090 | -0.48491 | 86 ft | 4 kts | 236° |
| 2026-05-05 13:23 | 51.47109 | -0.48472 | 90 ft | 3 kts | 180° |
| 2026-05-05 13:24 | 51.47126 | -0.48472 | 88 ft | 0 kts | 180° |
| 2026-05-05 13:27 | 51.47110 | -0.48472 | 89 ft | 7 kts | 179° |
| 2026-05-05 13:27 | 51.47033 | -0.48471 | 86 ft | 13 kts | 179° |
| 2026-05-05 13:28 | 51.46930 | -0.48470 | 86 ft | 16 kts | 179° |
| 2026-05-05 13:28 | 51.46832 | -0.48469 | 86 ft | 12 kts | 180° |
| 2026-05-05 13:28 | 51.46744 | -0.48468 | 86 ft | 14 kts | 180° |
| 2026-05-05 13:28 | 51.46641 | -0.48467 | 86 ft | 16 kts | 180° |
| 2026-05-05 13:29 | 51.46591 | -0.48467 | 86 ft | 0 kts | 179° |
| 2026-05-05 13:34 | 51.46588 | -0.48467 | 86 ft | 2 kts | 179° |
| 2026-05-05 13:34 | 51.46558 | -0.48466 | 87 ft | 7 kts | 179° |
| 2026-05-05 13:34 | 51.46500 | -0.48460 | 89 ft | 9 kts | 162° |
| 2026-05-05 13:35 | 51.46478 | -0.48372 | 87 ft | 3 kts | 90° |
| 2026-05-05 13:35 | 51.46478 | -0.48365 | 87 ft | 5 kts | 90° |
| 2026-05-05 13:36 | 51.46479 | -0.48035 | 87 ft | 59 kts | 90° |
| 2026-05-05 13:36 | 51.46483 | -0.47074 | 87 ft | 113 kts | 89° |
| 2026-05-05 13:36 | 51.46488 | -0.45537 | 100 ft | 160 kts | 88° |
| 2026-05-05 13:36 | 51.46495 | -0.43732 | 702 ft | 161 kts | 85° |
| 2026-05-05 13:37 | 51.46488 | -0.41908 | 1370 ft | 172 kts | 91° |
| 2026-05-05 13:37 | 51.45873 | -0.40096 | 1623 ft | 209 kts | 136° |
| 2026-05-05 13:37 | 51.44664 | -0.38617 | 2037 ft | 229 kts | 135° |
| 2026-05-05 13:37 | 51.43698 | -0.36531 | 2664 ft | 238 kts | 109° |
| 2026-05-05 13:38 | 51.43397 | -0.33853 | 3365 ft | 251 kts | 94° |
| 2026-05-05 13:38 | 51.43144 | -0.31037 | 4336 ft | 258 kts | 98° |
| 2026-05-05 13:38 | 51.42787 | -0.28194 | 5341 ft | 263 kts | 100° |
| 2026-05-05 13:38 | 51.42388 | -0.25290 | 5946 ft | 269 kts | 101° |
| 2026-05-05 13:39 | 51.41977 | -0.22357 | 6900 ft | 271 kts | 101° |
| 2026-05-05 13:39 | 51.41561 | -0.19391 | 7811 ft | 275 kts | 101° |
| 2026-05-05 13:39 | 51.41140 | -0.16373 | 8701 ft | 281 kts | 101° |
| 2026-05-05 13:39 | 51.40713 | -0.13292 | 9567 ft | 286 kts | 102° |
| 2026-05-05 13:40 | 51.40278 | -0.10136 | 10234 ft | 299 kts | 102° |
| 2026-05-05 13:40 | 51.39813 | -0.06759 | 10514 ft | 322 kts | 101° |
| 2026-05-05 13:40 | 51.39314 | -0.03151 | 10859 ft | 340 kts | 102° |
| 2026-05-05 13:40 | 51.38792 | 0.00586 | 11573 ft | 345 kts | 102° |
| 2026-05-05 13:41 | 51.38267 | 0.04351 | 12328 ft | 348 kts | 101° |
| 2026-05-05 13:41 | 51.37917 | 0.06864 | 12838 ft | 350 kts | 102° |
| 2026-05-05 13:41 | 51.37384 | 0.10687 | 13607 ft | 353 kts | 101° |
| 2026-05-05 13:41 | 51.36846 | 0.14532 | 14284 ft | 356 kts | 102° |
| 2026-05-05 13:42 | 51.36299 | 0.18420 | 14908 ft | 360 kts | 102° |
| 2026-05-05 13:42 | 51.35743 | 0.22349 | 15569 ft | 363 kts | 102° |
| 2026-05-05 13:42 | 51.35183 | 0.26299 | 16226 ft | 366 kts | 102° |
| 2026-05-05 13:42 | 51.34618 | 0.30289 | 16841 ft | 370 kts | 102° |
| 2026-05-05 13:43 | 51.34048 | 0.34325 | 17484 ft | 374 kts | 102° |
| 2026-05-05 13:43 | 51.33472 | 0.38396 | 18156 ft | 377 kts | 102° |
| 2026-05-05 13:43 | 51.32888 | 0.42498 | 18725 ft | 380 kts | 102° |
| 2026-05-05 13:43 | 51.32294 | 0.46639 | 19401 ft | 384 kts | 103° |
| 2026-05-05 13:44 | 51.31688 | 0.50831 | 19950 ft | 388 kts | 103° |
| 2026-05-05 13:44 | 51.31077 | 0.55051 | 20502 ft | 392 kts | 103° |
| 2026-05-05 13:44 | 51.30459 | 0.59316 | 21047 ft | 395 kts | 103° |
| 2026-05-05 13:44 | 51.29782 | 0.63591 | 21584 ft | 399 kts | 105° |
| 2026-05-05 13:45 | 51.29026 | 0.67874 | 22104 ft | 402 kts | 107° |
| 2026-05-05 13:45 | 51.28223 | 0.72165 | 22594 ft | 405 kts | 108° |
| 2026-05-05 13:45 | 51.27395 | 0.76493 | 23091 ft | 408 kts | 108° |
| 2026-05-05 13:45 | 51.26561 | 0.80851 | 23574 ft | 411 kts | 108° |
| 2026-05-05 13:46 | 51.25727 | 0.85252 | 23992 ft | 414 kts | 108° |
| 2026-05-05 13:46 | 51.24912 | 0.89610 | 24397 ft | 416 kts | 107° |
| 2026-05-05 13:46 | 51.24609 | 0.91244 | 24546 ft | 417 kts | 107° |
| 2026-05-05 13:46 | 51.23789 | 0.95692 | 24943 ft | 418 kts | 108° |
| 2026-05-05 13:47 | 51.22968 | 1.00147 | 25436 ft | 418 kts | 108° |
| 2026-05-05 13:47 | 51.22142 | 1.04610 | 25868 ft | 420 kts | 108° |
| 2026-05-05 13:47 | 51.21309 | 1.09100 | 26261 ft | 423 kts | 109° |
| 2026-05-05 13:47 | 51.20467 | 1.13614 | 26677 ft | 425 kts | 109° |
| 2026-05-05 13:48 | 51.19618 | 1.18139 | 27088 ft | 428 kts | 109° |
| 2026-05-05 13:48 | 51.18760 | 1.22691 | 27465 ft | 430 kts | 108° |
| 2026-05-05 13:48 | 51.17893 | 1.27275 | 27848 ft | 433 kts | 109° |
| 2026-05-05 13:48 | 51.17034 | 1.31820 | 28246 ft | 435 kts | 108° |
| 2026-05-05 13:49 | 51.16307 | 1.36587 | 28608 ft | 439 kts | 101° |
| 2026-05-05 13:49 | 51.16001 | 1.41383 | 28950 ft | 443 kts | 96° |
| 2026-05-05 13:49 | 51.15770 | 1.46292 | 29306 ft | 445 kts | 96° |
| 2026-05-05 13:49 | 51.15534 | 1.51219 | 29652 ft | 448 kts | 96° |
| 2026-05-05 13:50 | 51.15294 | 1.56180 | 29984 ft | 450 kts | 97° |
| 2026-05-05 13:50 | 51.15049 | 1.61162 | 30275 ft | 452 kts | 97° |
| 2026-05-05 13:50 | 51.14802 | 1.66179 | 30547 ft | 455 kts | 97° |
| 2026-05-05 13:50 | 51.14553 | 1.71209 | 30865 ft | 455 kts | 97° |
| 2026-05-05 13:51 | 51.14305 | 1.76226 | 31277 ft | 454 kts | 96° |
| 2026-05-05 13:51 | 51.14053 | 1.81244 | 31671 ft | 454 kts | 96° |
| 2026-05-05 13:51 | 51.13800 | 1.86254 | 32057 ft | 453 kts | 97° |
| 2026-05-05 13:51 | 51.13541 | 1.91257 | 32435 ft | 453 kts | 97° |
| 2026-05-05 13:52 | 51.13276 | 1.96272 | 32768 ft | 455 kts | 97° |
| 2026-05-05 13:52 | 51.13009 | 2.01302 | 33118 ft | 456 kts | 97° |
| 2026-05-05 13:52 | 51.12746 | 2.06259 | 33532 ft | 455 kts | 97° |
| 2026-05-05 13:52 | 51.12480 | 2.11278 | 33949 ft | 455 kts | 97° |
| 2026-05-05 13:53 | 51.12210 | 2.16296 | 34282 ft | 455 kts | 97° |
| 2026-05-05 13:53 | 51.11940 | 2.21306 | 34613 ft | 455 kts | 97° |
| 2026-05-05 13:53 | 51.11667 | 2.26320 | 34929 ft | 455 kts | 97° |
| 2026-05-05 13:53 | 51.11389 | 2.31336 | 35242 ft | 455 kts | 97° |
| 2026-05-05 13:54 | 51.11110 | 2.36352 | 35546 ft | 455 kts | 97° |
| 2026-05-05 13:54 | 51.10832 | 2.41366 | 35846 ft | 455 kts | 97° |
| 2026-05-05 13:54 | 51.10551 | 2.46381 | 36144 ft | 455 kts | 97° |
| 2026-05-05 13:54 | 51.10268 | 2.51396 | 36420 ft | 455 kts | 97° |
| 2026-05-05 13:55 | 51.09981 | 2.56415 | 36682 ft | 456 kts | 97° |
| 2026-05-05 13:55 | 51.09691 | 2.61443 | 36887 ft | 457 kts | 97° |
| 2026-05-05 13:55 | 51.08394 | 2.71244 | 36928 ft | 451 kts | 108° |
| 2026-05-05 13:56 | 51.06652 | 2.80822 | 36925 ft | 451 kts | 109° |
| 2026-05-05 13:56 | 51.04906 | 2.90396 | 36920 ft | 450 kts | 109° |
| 2026-05-05 13:57 | 51.03161 | 2.99940 | 36921 ft | 449 kts | 109° |
| 2026-05-05 13:57 | 51.01421 | 3.09413 | 36911 ft | 449 kts | 109° |
| 2026-05-05 13:58 | 50.99667 | 3.18930 | 36904 ft | 449 kts | 109° |
| 2026-05-05 13:58 | 50.97897 | 3.28436 | 36886 ft | 449 kts | 109° |
| 2026-05-05 13:59 | 50.95238 | 3.42650 | 36880 ft | 448 kts | 109° |
| 2026-05-05 14:00 | 50.92561 | 3.56835 | 36882 ft | 447 kts | 110° |
| 2026-05-05 14:00 | 50.90771 | 3.66277 | 36876 ft | 447 kts | 110° |
| 2026-05-05 14:01 | 50.88974 | 3.75646 | 36877 ft | 447 kts | 110° |
| 2026-05-05 14:01 | 50.87152 | 3.85062 | 36868 ft | 447 kts | 110° |
| 2026-05-05 14:02 | 50.85318 | 3.94477 | 36875 ft | 447 kts | 110° |
| 2026-05-05 14:02 | 50.83482 | 4.03887 | 36881 ft | 448 kts | 110° |
| 2026-05-05 14:03 | 50.81635 | 4.13301 | 36885 ft | 447 kts | 110° |
| 2026-05-05 14:03 | 50.79784 | 4.22680 | 36880 ft | 447 kts | 110° |
| 2026-05-05 14:04 | 50.77939 | 4.32003 | 36897 ft | 446 kts | 110° |
| 2026-05-05 14:04 | 50.76072 | 4.41374 | 36905 ft | 446 kts | 110° |
| 2026-05-05 14:05 | 50.74203 | 4.50705 | 36905 ft | 446 kts | 111° |
| 2026-05-05 14:05 | 50.72327 | 4.60016 | 36901 ft | 445 kts | 111° |
| 2026-05-05 14:06 | 50.70488 | 4.69345 | 36879 ft | 445 kts | 110° |
| 2026-05-05 14:06 | 50.68695 | 4.78678 | 36877 ft | 445 kts | 110° |
| 2026-05-05 14:07 | 50.66890 | 4.88019 | 36884 ft | 445 kts | 110° |
| 2026-05-05 14:07 | 50.65062 | 4.97259 | 36879 ft | 444 kts | 111° |
| 2026-05-05 14:08 | 50.63150 | 5.06518 | 36877 ft | 444 kts | 111° |
| 2026-05-05 14:08 | 50.61222 | 5.15762 | 36866 ft | 444 kts | 111° |
| 2026-05-05 14:09 | 50.59306 | 5.24999 | 36868 ft | 443 kts | 111° |
| 2026-05-05 14:09 | 50.57385 | 5.34236 | 36870 ft | 443 kts | 111° |
| 2026-05-05 14:10 | 50.55460 | 5.43454 | 36860 ft | 443 kts | 111° |
| 2026-05-05 14:10 | 50.53539 | 5.52595 | 36861 ft | 443 kts | 112° |
| 2026-05-05 14:11 | 50.51590 | 5.61773 | 36848 ft | 443 kts | 112° |
| 2026-05-05 14:11 | 50.49779 | 5.71050 | 36857 ft | 444 kts | 109° |
| 2026-05-05 14:12 | 50.48163 | 5.80408 | 36852 ft | 444 kts | 109° |
| 2026-05-05 14:12 | 50.46526 | 5.89757 | 36857 ft | 444 kts | 109° |
| 2026-05-05 14:13 | 50.44826 | 5.99073 | 36854 ft | 444 kts | 110° |
| 2026-05-05 14:13 | 50.43101 | 6.08359 | 36846 ft | 443 kts | 110° |
| 2026-05-05 14:14 | 50.41379 | 6.17624 | 36845 ft | 442 kts | 110° |
| 2026-05-05 14:14 | 50.39659 | 6.26879 | 36848 ft | 442 kts | 110° |
| 2026-05-05 14:15 | 50.37934 | 6.36132 | 36843 ft | 442 kts | 110° |
| 2026-05-05 14:15 | 50.36215 | 6.45309 | 36842 ft | 442 kts | 110° |
| 2026-05-05 14:16 | 50.34478 | 6.54527 | 36828 ft | 441 kts | 110° |
| 2026-05-05 14:16 | 50.32723 | 6.63748 | 36830 ft | 442 kts | 111° |
| 2026-05-05 14:17 | 50.30970 | 6.72956 | 36830 ft | 442 kts | 110° |
| 2026-05-05 14:17 | 50.29212 | 6.82168 | 36832 ft | 442 kts | 111° |
| 2026-05-05 14:18 | 50.27439 | 6.91364 | 36813 ft | 442 kts | 111° |
| 2026-05-05 14:18 | 50.25660 | 7.00551 | 36819 ft | 441 kts | 111° |
| 2026-05-05 14:19 | 50.23871 | 7.09731 | 36825 ft | 442 kts | 111° |
| 2026-05-05 14:19 | 50.22078 | 7.18918 | 36834 ft | 442 kts | 111° |
| 2026-05-05 14:20 | 50.20291 | 7.28049 | 36831 ft | 442 kts | 111° |
| 2026-05-05 14:20 | 50.18483 | 7.37208 | 36811 ft | 442 kts | 111° |
| 2026-05-05 14:21 | 50.16670 | 7.46354 | 36823 ft | 441 kts | 111° |
| 2026-05-05 14:21 | 50.14895 | 7.55279 | 36817 ft | 441 kts | 111° |
| 2026-05-05 14:22 | 50.13071 | 7.64402 | 36820 ft | 441 kts | 111° |
| 2026-05-05 14:22 | 50.11246 | 7.73521 | 36827 ft | 441 kts | 111° |
| 2026-05-05 14:23 | 50.09407 | 7.82642 | 36814 ft | 441 kts | 111° |
| 2026-05-05 14:23 | 50.07568 | 7.91693 | 36826 ft | 442 kts | 112° |
| 2026-05-05 14:24 | 50.05712 | 8.00817 | 36831 ft | 441 kts | 112° |
| 2026-05-05 14:24 | 50.03855 | 8.09913 | 36837 ft | 441 kts | 112° |
| 2026-05-05 14:25 | 50.01985 | 8.19013 | 36844 ft | 441 kts | 112° |
| 2026-05-05 14:25 | 50.00105 | 8.28101 | 36836 ft | 442 kts | 112° |
| 2026-05-05 14:26 | 49.98224 | 8.37189 | 36837 ft | 442 kts | 112° |
| 2026-05-05 14:26 | 49.96323 | 8.46275 | 36820 ft | 442 kts | 112° |
| 2026-05-05 14:27 | 49.94090 | 8.55106 | 36829 ft | 436 kts | 124° |
| 2026-05-05 14:27 | 49.91080 | 8.63251 | 36823 ft | 435 kts | 124° |
| 2026-05-05 14:28 | 49.88072 | 8.71413 | 36814 ft | 435 kts | 124° |
| 2026-05-05 14:28 | 49.85065 | 8.79549 | 36817 ft | 435 kts | 124° |
| 2026-05-05 14:29 | 49.82067 | 8.87626 | 36826 ft | 435 kts | 124° |
| 2026-05-05 14:29 | 49.79041 | 8.95745 | 36835 ft | 435 kts | 124° |
| 2026-05-05 14:30 | 49.76008 | 9.03855 | 36826 ft | 435 kts | 124° |
| 2026-05-05 14:30 | 49.72969 | 9.11956 | 36812 ft | 435 kts | 124° |
| 2026-05-05 14:31 | 49.70444 | 9.18683 | 36813 ft | 436 kts | 124° |
| 2026-05-05 14:31 | 49.67395 | 9.26772 | 36815 ft | 436 kts | 124° |
| 2026-05-05 14:32 | 49.63833 | 9.36165 | 36822 ft | 436 kts | 124° |
| 2026-05-05 14:32 | 49.61092 | 9.42713 | 36823 ft | 431 kts | 133° |
| 2026-05-05 14:33 | 49.57157 | 9.49648 | 36806 ft | 430 kts | 135° |
| 2026-05-05 14:33 | 49.53607 | 9.55889 | 36818 ft | 430 kts | 135° |
| 2026-05-05 14:34 | 49.49681 | 9.62777 | 36827 ft | 430 kts | 135° |
| 2026-05-05 14:34 | 49.45725 | 9.69680 | 36837 ft | 430 kts | 135° |
| 2026-05-05 14:35 | 49.41758 | 9.76573 | 36849 ft | 430 kts | 135° |
| 2026-05-05 14:35 | 49.37794 | 9.83463 | 36853 ft | 431 kts | 135° |
| 2026-05-05 14:36 | 49.33815 | 9.90345 | 36837 ft | 431 kts | 136° |
| 2026-05-05 14:36 | 49.29826 | 9.97209 | 36842 ft | 432 kts | 135° |
| 2026-05-05 14:37 | 49.27821 | 10.00650 | 36581 ft | 433 kts | 135° |
| 2026-05-05 14:37 | 49.25810 | 10.04099 | 35873 ft | 436 kts | 135° |
| 2026-05-05 14:37 | 49.23773 | 10.07585 | 35135 ft | 439 kts | 135° |
| 2026-05-05 14:37 | 49.21733 | 10.11072 | 34365 ft | 441 kts | 135° |
| 2026-05-05 14:38 | 49.19688 | 10.14567 | 33801 ft | 438 kts | 135° |
| 2026-05-05 14:38 | 49.17662 | 10.18031 | 32965 ft | 438 kts | 135° |
| 2026-05-05 14:38 | 49.15619 | 10.21514 | 32031 ft | 441 kts | 135° |
| 2026-05-05 14:38 | 49.13560 | 10.25010 | 31003 ft | 445 kts | 135° |
| 2026-05-05 14:39 | 49.11450 | 10.28501 | 30012 ft | 449 kts | 136° |
| 2026-05-05 14:39 | 49.09340 | 10.31913 | 29118 ft | 447 kts | 136° |
| 2026-05-05 14:39 | 49.07205 | 10.35321 | 28510 ft | 440 kts | 137° |
| 2026-05-05 14:39 | 49.05100 | 10.38658 | 27885 ft | 433 kts | 136° |
| 2026-05-05 14:40 | 49.03023 | 10.41954 | 27260 ft | 428 kts | 136° |
| 2026-05-05 14:40 | 49.00981 | 10.45206 | 26651 ft | 422 kts | 136° |
| 2026-05-05 14:40 | 48.98965 | 10.48425 | 26039 ft | 417 kts | 136° |
| 2026-05-05 14:40 | 48.96972 | 10.51608 | 25439 ft | 413 kts | 136° |
| 2026-05-05 14:41 | 48.94994 | 10.54761 | 24848 ft | 410 kts | 136° |
| 2026-05-05 14:41 | 48.93035 | 10.57881 | 24262 ft | 406 kts | 136° |
| 2026-05-05 14:41 | 48.91090 | 10.60972 | 23681 ft | 402 kts | 136° |
| 2026-05-05 14:41 | 48.89162 | 10.64029 | 23069 ft | 398 kts | 136° |
| 2026-05-05 14:42 | 48.87457 | 10.66733 | 22582 ft | 392 kts | 136° |
| 2026-05-05 14:42 | 48.85611 | 10.69660 | 22065 ft | 387 kts | 136° |
| 2026-05-05 14:42 | 48.83783 | 10.72562 | 21558 ft | 382 kts | 136° |
| 2026-05-05 14:42 | 48.81952 | 10.75458 | 21061 ft | 378 kts | 136° |
| 2026-05-05 14:43 | 48.80145 | 10.78309 | 20577 ft | 374 kts | 136° |
| 2026-05-05 14:43 | 48.78345 | 10.81136 | 20090 ft | 370 kts | 137° |
| 2026-05-05 14:43 | 48.76568 | 10.83921 | 19603 ft | 366 kts | 137° |
| 2026-05-05 14:43 | 48.74810 | 10.86677 | 19117 ft | 362 kts | 137° |
| 2026-05-05 14:44 | 48.73073 | 10.89401 | 18630 ft | 358 kts | 137° |
| 2026-05-05 14:44 | 48.71346 | 10.92100 | 18142 ft | 355 kts | 137° |
| 2026-05-05 14:44 | 48.69634 | 10.94767 | 17584 ft | 352 kts | 137° |
| 2026-05-05 14:44 | 48.67934 | 10.97415 | 17093 ft | 347 kts | 137° |
| 2026-05-05 14:45 | 48.66261 | 11.00020 | 16582 ft | 344 kts | 137° |
| 2026-05-05 14:45 | 48.64601 | 11.02609 | 16077 ft | 341 kts | 137° |
| 2026-05-05 14:45 | 48.62955 | 11.05172 | 15573 ft | 338 kts | 137° |
| 2026-05-05 14:45 | 48.61339 | 11.07678 | 15072 ft | 336 kts | 137° |
| 2026-05-05 14:46 | 48.59713 | 11.10198 | 14569 ft | 334 kts | 137° |
| 2026-05-05 14:46 | 48.58060 | 11.12662 | 14058 ft | 333 kts | 142° |
| 2026-05-05 14:46 | 48.56192 | 11.14724 | 13494 ft | 334 kts | 149° |
| 2026-05-05 14:46 | 48.54353 | 11.16897 | 12900 ft | 340 kts | 136° |
| 2026-05-05 14:47 | 48.53016 | 11.19821 | 12590 ft | 340 kts | 118° |
| 2026-05-05 14:47 | 48.52331 | 11.23240 | 12328 ft | 344 kts | 100° |
| 2026-05-05 14:47 | 48.52374 | 11.26851 | 12059 ft | 347 kts | 82° |
| 2026-05-05 14:47 | 48.52875 | 11.30408 | 11815 ft | 346 kts | 80° |
| 2026-05-05 14:48 | 48.53383 | 11.33928 | 11544 ft | 340 kts | 80° |
| 2026-05-05 14:48 | 48.53881 | 11.37397 | 11286 ft | 336 kts | 80° |
| 2026-05-05 14:48 | 48.54369 | 11.40832 | 11037 ft | 334 kts | 81° |
| 2026-05-05 14:48 | 48.54851 | 11.44256 | 10788 ft | 333 kts | 81° |
| 2026-05-05 14:49 | 48.55328 | 11.47665 | 10546 ft | 332 kts | 81° |
| 2026-05-05 14:49 | 48.55805 | 11.51071 | 10297 ft | 331 kts | 80° |
| 2026-05-05 14:49 | 48.56281 | 11.54463 | 10056 ft | 330 kts | 81° |
| 2026-05-05 14:49 | 48.56734 | 11.57859 | 9814 ft | 328 kts | 83° |
| 2026-05-05 14:50 | 48.56833 | 11.61237 | 9649 ft | 316 kts | 96° |
| 2026-05-05 14:50 | 48.56569 | 11.64470 | 9520 ft | 305 kts | 101° |
| 2026-05-05 14:50 | 48.56276 | 11.67537 | 9390 ft | 295 kts | 101° |
| 2026-05-05 14:50 | 48.55987 | 11.70569 | 9259 ft | 290 kts | 100° |
| 2026-05-05 14:51 | 48.55699 | 11.73574 | 9128 ft | 288 kts | 99° |
| 2026-05-05 14:51 | 48.55414 | 11.76566 | 8990 ft | 288 kts | 101° |
| 2026-05-05 14:51 | 48.55127 | 11.79575 | 8864 ft | 291 kts | 100° |
| 2026-05-05 14:51 | 48.54837 | 11.82604 | 8733 ft | 291 kts | 100° |
| 2026-05-05 14:52 | 48.54546 | 11.85626 | 8605 ft | 291 kts | 100° |
| 2026-05-05 14:52 | 48.54252 | 11.88643 | 8478 ft | 291 kts | 100° |
| 2026-05-05 14:52 | 48.53955 | 11.91663 | 8351 ft | 290 kts | 100° |
| 2026-05-05 14:52 | 48.53663 | 11.94635 | 8214 ft | 288 kts | 100° |
| 2026-05-05 14:53 | 48.53369 | 11.97647 | 7951 ft | 283 kts | 101° |
| 2026-05-05 14:53 | 48.53089 | 12.00498 | 7821 ft | 274 kts | 100° |
| 2026-05-05 14:53 | 48.52813 | 12.03305 | 7685 ft | 266 kts | 100° |
| 2026-05-05 14:53 | 48.52546 | 12.06021 | 7559 ft | 258 kts | 100° |
| 2026-05-05 14:54 | 48.52281 | 12.08668 | 7341 ft | 254 kts | 100° |
| 2026-05-05 14:54 | 48.52008 | 12.11316 | 6970 ft | 256 kts | 102° |
| 2026-05-05 14:54 | 48.51341 | 12.13757 | 6704 ft | 250 kts | 127° |
| 2026-05-05 14:54 | 48.50098 | 12.15508 | 6463 ft | 243 kts | 152° |
| 2026-05-05 14:55 | 48.48533 | 12.16297 | 6226 ft | 239 kts | 176° |
| 2026-05-05 14:55 | 48.46881 | 12.16041 | 5973 ft | 236 kts | 201° |
| 2026-05-05 14:55 | 48.45428 | 12.14956 | 5714 ft | 233 kts | 210° |
| 2026-05-05 14:55 | 48.44028 | 12.13788 | 5475 ft | 233 kts | 210° |
| 2026-05-05 14:56 | 48.42608 | 12.12610 | 5221 ft | 233 kts | 211° |
| 2026-05-05 14:56 | 48.41192 | 12.11436 | 5028 ft | 232 kts | 211° |
| 2026-05-05 14:56 | 48.39868 | 12.10147 | 4966 ft | 221 kts | 224° |
| 2026-05-05 14:56 | 48.38948 | 12.08389 | 4805 ft | 210 kts | 244° |
| 2026-05-05 14:57 | 48.38505 | 12.06335 | 4573 ft | 205 kts | 262° |
| 2026-05-05 14:57 | 48.38346 | 12.04226 | 4311 ft | 201 kts | 264° |
| 2026-05-05 14:57 | 48.38192 | 12.02132 | 4051 ft | 200 kts | 264° |
| 2026-05-05 14:57 | 48.38039 | 12.00070 | 3785 ft | 197 kts | 263° |
| 2026-05-05 14:58 | 48.37888 | 11.98044 | 3562 ft | 191 kts | 263° |
| 2026-05-05 14:58 | 48.37740 | 11.96070 | 3273 ft | 187 kts | 263° |
| 2026-05-05 14:58 | 48.37602 | 11.94219 | 3050 ft | 165 kts | 263° |
| 2026-05-05 14:58 | 48.37481 | 11.92624 | 2843 ft | 143 kts | 263° |
| 2026-05-05 14:59 | 48.37374 | 11.91196 | 2662 ft | 133 kts | 263° |
| 2026-05-05 14:59 | 48.37272 | 11.89847 | 2483 ft | 131 kts | 262° |
| 2026-05-05 14:59 | 48.37169 | 11.88487 | 2320 ft | 130 kts | 263° |
| 2026-05-05 14:59 | 48.37067 | 11.87136 | 2150 ft | 131 kts | 264° |
| 2026-05-05 15:00 | 48.36964 | 11.85777 | 1969 ft | 128 kts | 264° |
| 2026-05-05 15:00 | 48.36896 | 11.84880 | 1865 ft | 131 kts | 264° |
| 2026-05-05 15:00 | 48.36762 | 11.83090 | 1617 ft | 125 kts | 264° |
| 2026-05-05 15:00 | 48.36663 | 11.81823 | 1497 ft | 118 kts | 264° |
| 2026-05-05 15:01 | 48.36585 | 11.80759 | 1485 ft | 82 kts | 263° |
| 2026-05-05 15:01 | 48.36538 | 11.80162 | 1474 ft | 39 kts | 263° |
| 2026-05-05 15:01 | 48.36491 | 11.79808 | 1485 ft | 32 kts | 244° |
| 2026-05-05 15:01 | 48.36384 | 11.79567 | 1485 ft | 21 kts | 234° |
| 2026-05-05 15:02 | 48.36294 | 11.79385 | 1483 ft | 17 kts | 233° |
| 2026-05-05 15:02 | 48.36282 | 11.79362 | 1475 ft | 1 kts | 233° |
| 2026-05-05 15:02 | 48.36281 | 11.79360 | 1476 ft | 0 kts | 233° |
| 2026-05-05 15:02 | 48.36281 | 11.79359 | 1476 ft | 0 kts | 233° |
| 2026-05-05 15:03 | 48.36279 | 11.79356 | 1481 ft | 1 kts | 233° |
| 2026-05-05 15:03 | 48.36265 | 11.79329 | 1480 ft | 5 kts | 233° |
| 2026-05-05 15:03 | 48.36232 | 11.79262 | 1482 ft | 11 kts | 233° |
| 2026-05-05 15:04 | 48.36187 | 11.79129 | 1483 ft | 18 kts | 263° |
| 2026-05-05 15:04 | 48.36170 | 11.78899 | 1485 ft | 26 kts | 263° |
| 2026-05-05 15:04 | 48.36146 | 11.78587 | 1485 ft | 31 kts | 264° |
| 2026-05-05 15:04 | 48.36119 | 11.78235 | 1480 ft | 37 kts | 263° |
| 2026-05-05 15:05 | 48.36042 | 11.77665 | 1485 ft | 18 kts | 188° |
| 2026-05-05 15:05 | 48.35928 | 11.77682 | 1473 ft | 14 kts | 174° |
| 2026-05-05 15:05 | 48.35828 | 11.77698 | 1486 ft | 15 kts | 173° |
| 2026-05-05 15:06 | 48.35720 | 11.77755 | 1481 ft | 19 kts | 171° |
| 2026-05-05 15:06 | 48.35581 | 11.77777 | 1480 ft | 21 kts | 173° |
| 2026-05-05 15:06 | 48.35429 | 11.77804 | 1475 ft | 23 kts | 173° |
| 2026-05-05 15:06 | 48.35362 | 11.77930 | 1481 ft | 18 kts | 79° |
| 2026-05-05 15:07 | 48.35379 | 11.78125 | 1481 ft | 17 kts | 88° |
| 2026-05-05 15:07 | 48.35370 | 11.78258 | 1480 ft | 8 kts | 83° |
| 2026-05-05 15:07 | 48.35374 | 11.78305 | 1474 ft | 0 kts | 83° |
| 2026-05-05 15:07 | 48.35375 | 11.78310 | 1475 ft | 0 kts | 83° |